createdAt,value
2017-09-06T00:00:22.392Z,4.60
2017-09-06T00:02:50.320Z,3.47
2017-09-06T00:05:18.157Z,3.70
2017-09-06T00:07:46.129Z,2.87
2017-09-06T00:10:13.926Z,3.10
2017-09-06T00:12:41.777Z,3.80
2017-09-06T00:15:09.574Z,3.23
2017-09-06T00:17:37.391Z,3.33
2017-09-06T00:20:05.373Z,3.13
2017-09-06T00:22:33.325Z,2.93
2017-09-06T00:25:01.403Z,3.27
2017-09-06T00:27:29.263Z,2.93
2017-09-06T00:29:57.059Z,3.50
2017-09-06T00:32:24.896Z,3.57
2017-09-06T00:34:52.967Z,2.70
2017-09-06T00:37:20.832Z,3.33
2017-09-06T00:39:48.909Z,3.20
2017-09-06T00:42:16.688Z,3.53
2017-09-06T00:44:44.635Z,3.00
2017-09-06T00:47:12.518Z,3.33
2017-09-06T00:49:40.496Z,3.40
2017-09-06T00:52:08.340Z,4.00
2017-09-06T00:54:36.205Z,3.40
2017-09-06T00:57:04.174Z,3.37
2017-09-06T00:59:32.011Z,3.47
2017-09-06T01:01:59.903Z,3.60
2017-09-06T01:04:27.772Z,3.10
2017-09-06T01:06:55.836Z,3.57
2017-09-06T01:09:23.735Z,3.27
2017-09-06T01:11:51.680Z,3.60
2017-09-06T01:14:19.649Z,4.00
2017-09-06T01:16:47.621Z,3.07
2017-09-06T01:19:15.505Z,3.80
2017-09-06T01:21:43.472Z,3.33
2017-09-06T01:24:11.448Z,3.57
2017-09-06T01:26:39.357Z,3.43
2017-09-06T01:29:07.152Z,3.60
2017-09-06T01:31:35.237Z,3.20
2017-09-06T01:34:03.114Z,3.47
2017-09-06T01:36:31.165Z,3.10
2017-09-06T01:38:59.137Z,3.83
2017-09-06T01:41:27.719Z,3.80
2017-09-06T01:43:55.801Z,3.87
2017-09-06T01:46:23.655Z,4.33
2017-09-06T01:48:51.467Z,3.87
2017-09-06T01:51:19.385Z,3.77
2017-09-06T01:53:48.288Z,3.80
2017-09-06T01:56:16.150Z,3.93
2017-09-06T01:58:43.960Z,3.73
2017-09-06T02:01:11.895Z,3.60
2017-09-06T02:03:39.708Z,4.20
2017-09-06T02:06:07.547Z,3.87
2017-09-06T02:08:35.322Z,3.20
2017-09-06T02:11:03.366Z,3.40
2017-09-06T02:13:31.218Z,3.50
2017-09-06T02:15:58.969Z,4.73
2017-09-06T02:18:26.847Z,3.23
2017-09-06T02:20:54.804Z,3.43
2017-09-06T02:23:22.597Z,3.60
2017-09-06T02:25:50.540Z,3.27
2017-09-06T02:28:18.506Z,3.63
2017-09-06T02:30:46.370Z,4.30
2017-09-06T02:33:14.242Z,3.27
2017-09-06T02:35:42.412Z,3.43
2017-09-06T02:38:10.298Z,4.20
2017-09-06T02:40:38.266Z,4.10
2017-09-06T02:43:06.069Z,3.63
2017-09-06T02:45:34.066Z,3.80
2017-09-06T02:48:01.904Z,4.13
2017-09-06T02:50:29.744Z,3.37
2017-09-06T02:52:57.869Z,4.50
2017-09-06T02:55:25.752Z,3.43
2017-09-06T02:57:53.628Z,3.80
2017-09-06T03:00:21.391Z,3.63
2017-09-06T03:02:49.112Z,3.40
2017-09-06T03:05:17.016Z,3.50
2017-09-06T03:07:44.989Z,3.60
2017-09-06T03:10:12.951Z,4.27
2017-09-06T03:12:40.729Z,4.50
2017-09-06T03:15:08.585Z,3.57
2017-09-06T03:17:36.566Z,3.40
2017-09-06T03:20:04.524Z,4.27
2017-09-06T03:22:32.486Z,3.90
2017-09-06T03:25:00.269Z,4.90
2017-09-06T03:27:28.157Z,4.73
2017-09-06T03:29:55.989Z,5.07
2017-09-06T03:32:23.964Z,5.00
2017-09-06T03:34:51.926Z,4.10
2017-09-06T03:37:19.924Z,4.57
2017-09-06T03:39:48.186Z,4.77
2017-09-06T03:42:16.168Z,3.90
2017-09-06T03:44:44.698Z,5.07
2017-09-06T03:47:12.551Z,4.73
2017-09-06T03:49:41.398Z,5.13
2017-09-06T03:52:09.359Z,5.33
2017-09-06T03:54:37.342Z,4.87
2017-09-06T03:57:05.207Z,4.53
2017-09-06T03:59:33.151Z,4.63
2017-09-06T04:02:01.121Z,5.10
2017-09-06T04:04:29.092Z,5.30
2017-09-06T04:06:57.055Z,4.60
2017-09-06T04:09:25.027Z,5.03
2017-09-06T04:11:52.926Z,4.13
2017-09-06T04:14:20.732Z,4.77
2017-09-06T04:16:48.818Z,4.53
2017-09-06T04:19:16.799Z,5.77
2017-09-06T04:21:44.587Z,5.77
2017-09-06T04:24:12.444Z,5.47
2017-09-06T04:26:40.833Z,5.80
2017-09-06T04:29:08.776Z,6.00
2017-09-06T04:31:36.644Z,6.33
2017-09-06T04:34:04.613Z,5.63
2017-09-06T04:36:32.585Z,4.67
2017-09-06T04:39:00.685Z,5.13
2017-09-06T04:41:28.723Z,5.90
2017-09-06T04:43:56.796Z,6.37
2017-09-06T04:46:24.713Z,6.07
2017-09-06T04:48:52.627Z,5.37
2017-09-06T04:51:20.703Z,6.27
2017-09-06T04:53:48.534Z,7.73
2017-09-06T04:56:16.392Z,5.47
2017-09-06T04:58:44.297Z,5.33
2017-09-06T05:01:12.270Z,4.90
2017-09-06T05:03:40.129Z,3.73
2017-09-06T05:06:08.410Z,5.03
2017-09-06T05:08:36.967Z,5.03
2017-09-06T05:11:04.960Z,4.40
2017-09-06T05:13:33.907Z,5.63
2017-09-06T05:16:01.826Z,5.30
2017-09-06T05:18:29.712Z,4.73
2017-09-06T05:20:57.655Z,5.07
2017-09-06T05:23:25.541Z,4.80
2017-09-06T05:25:53.424Z,4.80
2017-09-06T05:28:21.569Z,4.70
2017-09-06T05:30:49.494Z,5.53
2017-09-06T05:33:17.322Z,6.93
2017-09-06T05:35:45.268Z,7.40
2017-09-06T05:38:13.199Z,6.60
2017-09-06T05:40:41.106Z,5.63
2017-09-06T05:43:08.938Z,5.90
2017-09-06T05:45:36.937Z,10.40
2017-09-06T05:48:04.713Z,8.10
2017-09-06T05:50:32.672Z,9.07
2017-09-06T05:53:00.640Z,7.43
2017-09-06T05:55:28.538Z,6.20
2017-09-06T05:57:56.762Z,5.40
2017-09-06T06:00:24.652Z,5.47
2017-09-06T06:02:52.720Z,5.43
2017-09-06T06:05:20.690Z,6.17
2017-09-06T06:07:48.658Z,6.53
2017-09-06T06:10:16.727Z,6.30
2017-09-06T06:12:45.204Z,6.40
2017-09-06T06:15:13.176Z,7.07
2017-09-06T06:17:41.362Z,5.60
2017-09-06T06:20:09.325Z,7.53
2017-09-06T06:22:37.102Z,6.03
2017-09-06T06:25:04.939Z,6.80
2017-09-06T06:27:32.747Z,7.30
2017-09-06T06:30:00.705Z,7.97
2017-09-06T06:32:28.854Z,8.23
2017-09-06T06:34:56.845Z,6.97
2017-09-06T06:37:24.862Z,8.10
2017-09-06T06:39:53.070Z,6.43
2017-09-06T06:42:21.163Z,8.20
2017-09-06T06:44:49.110Z,6.93
2017-09-06T06:47:16.934Z,8.80
2017-09-06T06:49:44.946Z,8.60
2017-09-06T06:52:12.732Z,9.70
2017-09-06T06:54:40.711Z,8.30
2017-09-06T06:57:08.452Z,9.30
2017-09-06T06:59:36.327Z,8.73
2017-09-06T07:02:04.131Z,9.50
2017-09-06T07:04:32.222Z,8.10
2017-09-06T07:07:00.047Z,6.67
2017-09-06T07:09:27.801Z,7.63
2017-09-06T07:11:55.615Z,6.90
2017-09-06T07:14:23.529Z,6.53
2017-09-06T07:16:51.403Z,8.03
2017-09-06T07:19:19.233Z,7.77
2017-09-06T07:21:47.721Z,10.03
2017-09-06T07:24:15.552Z,9.13
2017-09-06T07:26:43.343Z,8.33
2017-09-06T07:29:11.334Z,10.97
2017-09-06T07:31:39.284Z,7.77
2017-09-06T07:34:07.064Z,7.83
2017-09-06T07:36:34.930Z,11.33
2017-09-06T07:39:02.886Z,9.77
2017-09-06T07:41:30.671Z,8.33
2017-09-06T07:43:58.527Z,9.03
2017-09-06T07:46:27.283Z,9.17
2017-09-06T07:48:55.201Z,8.07
2017-09-06T07:51:23.035Z,6.30
2017-09-06T07:53:51.509Z,5.40
2017-09-06T07:56:19.306Z,5.47
2017-09-06T07:58:47.024Z,4.50
2017-09-06T08:01:14.911Z,7.00
2017-09-06T08:03:42.659Z,7.60
2017-09-06T08:06:11.302Z,7.00
2017-09-06T08:08:39.088Z,5.90
2017-09-06T08:11:07.124Z,5.73
2017-09-06T08:13:35.073Z,5.40
2017-09-06T08:16:02.927Z,5.63
2017-09-06T08:18:31.129Z,6.37
2017-09-06T08:20:59.179Z,6.43
2017-09-06T08:23:28.893Z,7.50
2017-09-06T08:25:58.079Z,7.13
2017-09-06T08:28:26.595Z,6.40
2017-09-06T08:30:54.435Z,6.60
2017-09-06T08:33:22.516Z,5.53
2017-09-06T08:35:51.210Z,5.70
2017-09-06T08:38:19.972Z,6.43
2017-09-06T08:40:47.862Z,5.63
2017-09-06T08:43:15.828Z,5.17
2017-09-06T08:45:43.952Z,5.67
2017-09-06T08:48:11.865Z,5.00
2017-09-06T08:50:40.041Z,5.47
2017-09-06T08:53:08.106Z,5.27
2017-09-06T08:55:36.067Z,4.73
2017-09-06T08:58:04.243Z,5.40
2017-09-06T09:00:32.203Z,4.87
2017-09-06T09:03:02.271Z,5.47
2017-09-06T09:05:30.320Z,4.93
2017-09-06T09:07:58.794Z,5.33
2017-09-06T09:10:27.988Z,5.90
2017-09-06T09:12:57.357Z,5.50
2017-09-06T09:15:26.208Z,6.77
2017-09-06T09:17:54.128Z,6.03
2017-09-06T09:20:22.097Z,5.43
2017-09-06T09:22:50.295Z,6.30
2017-09-06T09:25:18.162Z,6.20
2017-09-06T09:27:46.209Z,4.90
2017-09-06T09:30:14.168Z,4.83
2017-09-06T09:32:42.076Z,5.53
2017-09-06T09:35:10.010Z,5.90
2017-09-06T09:37:37.879Z,6.20
2017-09-06T09:40:05.661Z,5.00
2017-09-06T09:42:33.627Z,5.70
2017-09-06T09:45:01.908Z,4.80
2017-09-06T09:47:29.764Z,5.77
2017-09-06T09:49:57.680Z,5.10
2017-09-06T09:52:25.692Z,4.20
2017-09-06T09:54:53.467Z,6.00
2017-09-06T09:57:21.234Z,5.07
2017-09-06T09:59:49.022Z,6.40
2017-09-06T10:02:16.851Z,6.40
2017-09-06T10:04:44.821Z,6.20
2017-09-06T10:07:12.714Z,5.80
2017-09-06T10:09:40.861Z,5.30
2017-09-06T10:12:08.939Z,6.23
2017-09-06T10:14:36.901Z,5.40
2017-09-06T10:17:04.677Z,5.70
2017-09-06T10:19:32.635Z,5.00
2017-09-06T10:22:00.706Z,6.63
2017-09-06T10:24:28.875Z,5.20
2017-09-06T10:26:56.749Z,4.83
2017-09-06T10:29:24.611Z,5.27
2017-09-06T10:31:52.399Z,5.23
2017-09-06T10:34:20.515Z,5.43
2017-09-06T10:36:48.455Z,6.20
2017-09-06T10:39:16.319Z,4.30
2017-09-06T10:41:44.076Z,4.27
2017-09-06T10:44:11.923Z,4.63
2017-09-06T10:46:40.108Z,5.27
2017-09-06T10:49:08.258Z,5.27
2017-09-06T10:51:36.233Z,4.70
2017-09-06T10:54:08.072Z,4.93
2017-09-06T10:56:37.167Z,4.77
2017-09-06T10:59:05.062Z,3.50
2017-09-06T11:01:32.799Z,4.60
2017-09-06T11:04:00.822Z,3.20
2017-09-06T11:06:28.746Z,4.00
2017-09-06T11:08:56.635Z,4.30
2017-09-06T11:11:24.499Z,3.10
2017-09-06T11:13:52.389Z,3.43
2017-09-06T11:16:20.211Z,3.77
2017-09-06T11:18:48.311Z,3.00
2017-09-06T11:21:16.359Z,3.90
2017-09-06T11:23:46.303Z,3.30
2017-09-06T11:26:14.170Z,2.60
2017-09-06T11:28:42.107Z,2.40
2017-09-06T11:31:09.990Z,2.90
2017-09-06T11:33:37.827Z,2.90
2017-09-06T11:36:05.957Z,3.03
2017-09-06T11:38:34.907Z,2.70
2017-09-06T11:41:02.912Z,2.67
2017-09-06T11:43:30.845Z,3.20
2017-09-06T11:45:58.742Z,2.93
2017-09-06T11:48:26.602Z,2.73
2017-09-06T11:50:54.462Z,3.23
2017-09-06T11:53:22.436Z,2.90
2017-09-06T11:55:50.482Z,3.10
2017-09-06T11:58:19.189Z,3.20
2017-09-06T12:00:47.167Z,2.40
2017-09-06T12:03:15.167Z,3.17
2017-09-06T12:05:43.077Z,2.47
2017-09-06T12:08:10.943Z,2.10
2017-09-06T12:10:38.928Z,2.20
2017-09-06T12:13:06.985Z,2.73
2017-09-06T12:15:34.852Z,2.90
2017-09-06T12:18:02.695Z,2.20
2017-09-06T12:20:31.359Z,2.63
2017-09-06T12:22:59.191Z,2.43
2017-09-06T12:25:27.061Z,1.90
2017-09-06T12:27:54.823Z,2.27
2017-09-06T12:30:23.423Z,1.60
2017-09-06T12:32:51.356Z,2.77
2017-09-06T12:35:19.931Z,2.10
2017-09-06T12:37:48.567Z,2.00
2017-09-06T12:40:16.333Z,3.73
2017-09-06T12:42:44.374Z,2.47
2017-09-06T12:45:12.445Z,2.47
2017-09-06T12:47:40.219Z,2.67
2017-09-06T12:50:08.173Z,2.20
2017-09-06T12:52:36.040Z,2.10
2017-09-06T12:55:04.093Z,2.20
2017-09-06T12:57:32.061Z,2.13
2017-09-06T13:00:00.466Z,2.10
2017-09-06T13:02:28.538Z,2.07
2017-09-06T13:04:56.580Z,2.30
2017-09-06T13:07:24.586Z,2.00
2017-09-06T13:09:52.520Z,1.93
2017-09-06T13:12:20.407Z,2.33
2017-09-06T13:14:48.253Z,1.87
2017-09-06T13:17:16.324Z,2.37
2017-09-06T13:19:44.401Z,13.70
2017-09-06T13:22:12.262Z,2.83
2017-09-06T13:24:40.130Z,22.47
2017-09-06T13:27:08.755Z,16.80
2017-09-06T13:29:36.681Z,3.73
2017-09-06T13:32:05.680Z,5.23
2017-09-06T13:34:33.849Z,2.33
2017-09-06T13:37:01.725Z,2.40
2017-09-06T13:39:29.522Z,1.93
2017-09-06T13:41:58.700Z,2.30
2017-09-06T13:44:26.543Z,4.70
2017-09-06T13:46:54.689Z,2.87
2017-09-06T13:49:22.601Z,2.70
2017-09-06T13:51:50.538Z,2.00
2017-09-06T13:54:18.540Z,3.40
2017-09-06T13:56:46.430Z,3.53
2017-09-06T13:59:16.616Z,2.40
2017-09-06T14:01:44.510Z,1.53
2017-09-06T14:04:12.366Z,2.80
2017-09-06T14:06:40.352Z,2.20
2017-09-06T14:09:09.205Z,1.70
2017-09-06T14:11:37.483Z,1.67
2017-09-06T14:14:06.578Z,1.77
2017-09-06T14:16:34.764Z,1.80
2017-09-06T14:19:03.266Z,1.80
2017-09-06T14:21:31.457Z,1.90
2017-09-06T14:24:00.115Z,2.00
2017-09-06T14:26:28.103Z,1.70
2017-09-06T14:28:56.044Z,1.70
2017-09-06T14:31:24.140Z,2.03
2017-09-06T14:33:52.829Z,1.67
2017-09-06T14:36:21.071Z,2.30
2017-09-06T14:38:49.033Z,1.90
2017-09-06T14:41:17.816Z,1.63
2017-09-06T14:43:46.127Z,1.97
2017-09-06T14:46:14.271Z,1.70
2017-09-06T14:48:42.778Z,2.60
2017-09-06T14:51:10.637Z,1.93
2017-09-06T14:53:38.482Z,1.60
2017-09-06T14:56:06.352Z,2.00
2017-09-06T14:58:34.317Z,1.77
2017-09-06T15:01:03.214Z,2.10
2017-09-06T15:03:31.482Z,1.67
2017-09-06T15:05:59.345Z,1.50
2017-09-06T15:08:27.867Z,2.40
2017-09-06T15:10:55.903Z,2.87
2017-09-06T15:13:26.022Z,2.07
2017-09-06T15:15:54.099Z,2.00
2017-09-06T15:18:22.184Z,1.70
2017-09-06T15:20:50.133Z,2.10
2017-09-06T15:23:18.040Z,1.47
2017-09-06T15:25:46.002Z,1.60
2017-09-06T15:28:14.036Z,2.40
2017-09-06T15:30:42.554Z,2.27
2017-09-06T15:33:10.485Z,2.00
2017-09-06T15:35:39.193Z,1.47
2017-09-06T15:38:07.076Z,2.00
2017-09-06T15:40:34.861Z,1.70
2017-09-06T15:43:03.805Z,1.90
2017-09-06T15:45:31.977Z,1.83
2017-09-06T15:48:00.043Z,1.87
2017-09-06T15:50:28.329Z,2.10
2017-09-06T15:52:56.295Z,1.73
2017-09-06T15:55:25.327Z,1.90
2017-09-06T15:57:53.243Z,1.70
2017-09-06T16:00:23.827Z,1.77
2017-09-06T16:02:51.677Z,2.10
2017-09-06T16:05:19.717Z,1.97
2017-09-06T16:07:47.685Z,2.53
2017-09-06T16:10:15.657Z,2.27
2017-09-06T16:12:43.535Z,2.53
2017-09-06T16:15:11.493Z,2.33
2017-09-06T16:17:39.563Z,1.87
2017-09-06T16:20:07.696Z,2.03
2017-09-06T16:22:35.732Z,1.53
2017-09-06T16:25:04.597Z,2.13
2017-09-06T16:27:32.769Z,1.77
2017-09-06T16:30:00.839Z,1.43
2017-09-06T16:32:29.011Z,1.37
2017-09-06T16:34:56.912Z,1.70
2017-09-06T16:37:25.521Z,1.40
2017-09-06T16:39:53.557Z,1.60
2017-09-06T16:42:21.504Z,1.63
2017-09-06T16:44:49.470Z,1.93
2017-09-06T16:47:17.598Z,1.73
2017-09-06T16:49:47.663Z,2.30
2017-09-06T16:52:16.180Z,1.80
2017-09-06T16:54:44.115Z,2.00
2017-09-06T16:57:12.277Z,2.03
2017-09-06T16:59:40.766Z,1.90
2017-09-06T17:02:10.578Z,1.30
2017-09-06T17:04:38.853Z,1.47
2017-09-06T17:07:06.818Z,1.33
2017-09-06T17:09:43.409Z,1.50
2017-09-06T17:12:11.388Z,1.50
2017-09-06T17:14:39.223Z,1.80
2017-09-06T17:17:07.234Z,1.90
2017-09-06T17:19:35.104Z,5.30
2017-09-06T17:22:03.168Z,7.20
2017-09-06T17:24:31.132Z,2.90
2017-09-06T17:26:59.012Z,2.33
2017-09-06T17:29:27.040Z,1.30
2017-09-06T17:31:54.907Z,1.10
2017-09-06T17:34:23.013Z,2.20
2017-09-06T17:36:51.535Z,1.70
2017-09-06T17:39:19.551Z,0.97
2017-09-06T17:41:47.710Z,1.43
2017-09-06T17:44:16.622Z,1.20
2017-09-06T17:46:44.770Z,1.50
2017-09-06T17:49:12.863Z,1.20
2017-09-06T17:51:41.149Z,1.70
2017-09-06T17:54:08.988Z,1.20
2017-09-06T17:56:36.849Z,1.07
2017-09-06T17:59:04.758Z,1.00
2017-09-06T18:01:33.322Z,1.20
2017-09-06T18:04:01.274Z,1.27
2017-09-06T18:06:29.597Z,0.90
2017-09-06T18:08:57.512Z,1.10
2017-09-06T18:11:25.550Z,1.00
2017-09-06T18:13:53.764Z,1.10
2017-09-06T18:16:21.937Z,1.13
2017-09-06T18:18:50.112Z,1.20
2017-09-06T18:21:18.257Z,1.27
2017-09-06T18:23:46.325Z,1.13
2017-09-06T18:26:15.664Z,1.70
2017-09-06T18:28:43.935Z,2.00
2017-09-06T18:31:12.206Z,1.40
2017-09-06T18:33:40.378Z,1.60
2017-09-06T18:36:10.914Z,1.37
2017-09-06T18:38:38.982Z,1.20
2017-09-06T18:41:08.589Z,1.20
2017-09-06T18:43:36.784Z,1.60
2017-09-06T18:46:04.835Z,1.20
2017-09-06T18:48:33.865Z,1.20
2017-09-06T18:51:02.004Z,1.00
2017-09-06T18:53:30.070Z,1.67
2017-09-06T18:55:58.064Z,1.40
2017-09-06T18:58:26.756Z,1.30
2017-09-06T19:00:54.698Z,1.60
2017-09-06T19:03:23.326Z,1.43
2017-09-06T19:05:51.344Z,1.60
2017-09-06T19:08:19.436Z,1.67
2017-09-06T19:10:47.491Z,1.27
2017-09-06T19:13:15.593Z,1.40
2017-09-06T19:15:47.112Z,1.20
2017-09-06T19:18:15.414Z,1.33
2017-09-06T19:20:43.465Z,1.30
2017-09-06T19:23:12.594Z,1.40
2017-09-06T19:25:40.638Z,1.20
2017-09-06T19:28:08.661Z,1.50
2017-09-06T19:30:36.770Z,1.60
2017-09-06T19:33:05.048Z,1.40
2017-09-06T19:35:32.928Z,1.20
2017-09-06T19:38:01.322Z,1.20
2017-09-06T19:40:29.259Z,1.30
2017-09-06T19:42:57.296Z,1.40
2017-09-06T19:45:25.240Z,1.00
2017-09-06T19:47:53.269Z,1.53
2017-09-06T19:50:22.054Z,1.20
2017-09-06T19:52:50.125Z,1.20
2017-09-06T19:55:18.208Z,1.00
2017-09-06T19:57:46.170Z,1.00
2017-09-06T20:00:15.582Z,1.00
2017-09-06T20:02:44.413Z,1.00
2017-09-06T20:05:12.433Z,1.30
2017-09-06T20:07:42.216Z,2.07
2017-09-06T20:10:10.243Z,1.10
2017-09-06T20:12:38.359Z,1.20
2017-09-06T20:15:08.037Z,1.10
2017-09-06T20:17:36.368Z,1.40
2017-09-06T20:20:04.241Z,1.53
2017-09-06T20:22:33.999Z,1.20
2017-09-06T20:25:01.949Z,1.43
2017-09-06T20:27:29.848Z,1.20
2017-09-06T20:29:58.919Z,1.13
2017-09-06T20:32:26.899Z,1.10
2017-09-06T20:34:54.941Z,1.00
2017-09-06T20:37:22.826Z,1.70
2017-09-06T20:39:51.315Z,1.50
2017-09-06T20:42:19.541Z,1.10
2017-09-06T20:44:47.508Z,1.10
2017-09-06T20:47:15.627Z,1.33
2017-09-06T20:49:43.577Z,1.30
2017-09-06T20:52:11.645Z,1.30
2017-09-06T20:54:39.734Z,1.43
2017-09-06T20:57:07.586Z,1.50
2017-09-06T20:59:35.528Z,1.77
2017-09-06T21:02:03.416Z,1.40
2017-09-06T21:04:34.367Z,1.80
2017-09-06T21:07:02.521Z,1.47
2017-09-06T21:09:30.495Z,1.40
2017-09-06T21:11:58.450Z,1.90
2017-09-06T21:14:26.430Z,1.40
2017-09-06T21:16:54.281Z,1.17
2017-09-06T21:19:22.602Z,1.40
2017-09-06T21:21:50.467Z,1.90
2017-09-06T21:24:18.513Z,1.07
2017-09-06T21:26:47.805Z,1.10
2017-09-06T21:29:15.800Z,1.40
2017-09-06T21:31:44.467Z,1.20
2017-09-06T21:34:12.281Z,1.57
2017-09-06T21:36:40.180Z,1.17
2017-09-06T21:39:08.147Z,1.27
2017-09-06T21:41:35.966Z,1.20
2017-09-06T21:44:03.980Z,1.53
2017-09-06T21:46:31.787Z,1.40
2017-09-06T21:48:59.638Z,1.40
2017-09-06T21:51:27.688Z,1.40
2017-09-06T21:53:55.554Z,1.80
2017-09-06T21:56:23.413Z,1.67
2017-09-06T21:58:51.279Z,1.30
2017-09-06T22:01:19.170Z,1.67
2017-09-06T22:03:47.940Z,1.50
2017-09-06T22:06:15.844Z,1.23
2017-09-06T22:08:43.633Z,1.67
2017-09-06T22:11:11.446Z,1.50
2017-09-06T22:13:39.316Z,1.67
2017-09-06T22:16:07.097Z,1.60
2017-09-06T22:18:35.037Z,1.70
2017-09-06T22:21:02.851Z,1.40
2017-09-06T22:23:30.685Z,1.40
2017-09-06T22:25:58.678Z,1.60
2017-09-06T22:28:27.101Z,1.77
2017-09-06T22:30:54.900Z,1.67
2017-09-06T22:33:22.746Z,1.80
2017-09-06T22:35:50.612Z,1.50
2017-09-06T22:38:18.785Z,1.43
2017-09-06T22:40:46.608Z,1.60
2017-09-06T22:43:14.414Z,1.93
2017-09-06T22:45:42.289Z,2.17
2017-09-06T22:48:10.149Z,1.97
2017-09-06T22:50:38.039Z,1.50
2017-09-06T22:53:06.958Z,1.80
2017-09-06T22:55:34.907Z,1.70
2017-09-06T22:58:02.666Z,1.70
2017-09-06T23:00:31.443Z,1.63
2017-09-06T23:03:00.035Z,1.80
2017-09-06T23:05:28.092Z,2.00
2017-09-06T23:07:56.075Z,1.90
2017-09-06T23:10:23.930Z,1.50
2017-09-06T23:12:52.189Z,2.50
2017-09-06T23:15:20.036Z,2.00
2017-09-06T23:17:47.940Z,1.90
2017-09-06T23:20:15.727Z,1.97
2017-09-06T23:22:43.556Z,2.00
2017-09-06T23:25:11.539Z,2.27
2017-09-06T23:27:39.282Z,1.90
2017-09-06T23:30:07.002Z,1.90
2017-09-06T23:32:34.849Z,2.03
2017-09-06T23:35:02.695Z,2.20
2017-09-06T23:37:30.411Z,2.87
2017-09-06T23:39:58.307Z,1.63
2017-09-06T23:42:26.295Z,2.60
2017-09-06T23:44:54.148Z,1.73
2017-09-06T23:47:22.116Z,2.07
2017-09-06T23:49:50.000Z,2.00
2017-09-06T23:52:17.848Z,2.07
2017-09-06T23:54:46.999Z,2.10
2017-09-06T23:57:14.806Z,1.67
2017-09-06T23:59:42.595Z,2.20
